PILOTS ONLINE: 408    ATC ONLINE: 83

KNXP

Twentynine Palms (Self) Airport

Location

City Twentynine Palms
Country  United States
Latitude 34° 17' 46" N
Longitude 116° 9' 43" W
Elevation 2051 ft
Type Medium Airport

Map

Weather

METAR
2014/08/29 23:56
KNXP 292356Z AUTO VRB06KT 10SM CLR 41/M01 A2985 RMK AO2 SLP066 T04061006 10406 20350 56021 
TAF
2014/08/29 21:12
TAF KNXP 2921/3021 VRB05KT 9999 SKC QNH2981INS 
      TEMPO 3003/3006 22010G17KT T42/2923Z T23/3013Z

Runways

10/28 8015 ft / 150 ft

Outbound flights

Callsign Flying to Pilot ATD/STD ETA Aircraft

Inbound flights

Callsign Flying from Pilot ATD ETA Aircraft